sensor_id;sensor_type;location;lat;lon;timestamp;temperature;humidity
64634;DHT22;51043;52.406;9.690;2024-03-06T00:00:06;4.10;99.90
64634;DHT22;51043;52.406;9.690;2024-03-06T00:02:35;4.10;99.90
64634;DHT22;51043;52.406;9.690;2024-03-06T00:05:04;4.10;99.90
64634;DHT22;51043;52.406;9.690;2024-03-06T00:07:34;4.10;99.90
64634;DHT22;51043;52.406;9.690;2024-03-06T00:10:03;4.10;99.90
64634;DHT22;51043;52.406;9.690;2024-03-06T00:12:33;4.10;99.90
64634;DHT22;51043;52.406;9.690;2024-03-06T00:15:01;4.00;99.90
64634;DHT22;51043;52.406;9.690;2024-03-06T00:17:31;4.10;99.90
64634;DHT22;51043;52.406;9.690;2024-03-06T00:19:59;4.10;99.90
64634;DHT22;51043;52.406;9.690;2024-03-06T00:22:28;4.10;99.90
64634;DHT22;51043;52.406;9.690;2024-03-06T00:24:59;4.10;99.90
64634;DHT22;51043;52.406;9.690;2024-03-06T00:27:27;4.10;99.90
64634;DHT22;51043;52.406;9.690;2024-03-06T00:30:01;4.20;99.90
64634;DHT22;51043;52.406;9.690;2024-03-06T00:32:29;4.20;99.90
64634;DHT22;51043;52.406;9.690;2024-03-06T00:35:00;4.20;99.90
64634;DHT22;51043;52.406;9.690;2024-03-06T00:37:29;4.20;99.90
64634;DHT22;51043;52.406;9.690;2024-03-06T00:40:00;4.20;99.90
64634;DHT22;51043;52.406;9.690;2024-03-06T00:42:32;4.20;99.90
64634;DHT22;51043;52.406;9.690;2024-03-06T00:45:05;4.20;99.90
64634;DHT22;51043;52.406;9.690;2024-03-06T00:47:34;4.10;99.90
64634;DHT22;51043;52.406;9.690;2024-03-06T00:50:03;4.20;99.90
64634;DHT22;51043;52.406;9.690;2024-03-06T00:52:37;4.20;99.90
64634;DHT22;51043;52.406;9.690;2024-03-06T00:55:05;4.10;99.90
64634;DHT22;51043;52.406;9.690;2024-03-06T00:57:35;4.20;99.90
64634;DHT22;51043;52.406;9.690;2024-03-06T01:00:06;4.20;99.90
64634;DHT22;51043;52.406;9.690;2024-03-06T01:02:37;4.20;99.90
64634;DHT22;51043;52.406;9.690;2024-03-06T01:05:06;4.20;99.90
64634;DHT22;51043;52.406;9.690;2024-03-06T01:07:39;4.20;99.90
64634;DHT22;51043;52.406;9.690;2024-03-06T01:10:08;4.20;99.90
64634;DHT22;51043;52.406;9.690;2024-03-06T01:12:38;4.20;99.90
64634;DHT22;51043;52.406;9.690;2024-03-06T01:15:09;4.20;99.90
64634;DHT22;51043;52.406;9.690;2024-03-06T01:17:38;4.20;99.90
64634;DHT22;51043;52.406;9.690;2024-03-06T01:20:10;4.20;99.90
64634;DHT22;51043;52.406;9.690;2024-03-06T01:22:39;4.20;99.90
64634;DHT22;51043;52.406;9.690;2024-03-06T01:25:07;4.20;99.90
64634;DHT22;51043;52.406;9.690;2024-03-06T01:27:36;4.20;99.90
64634;DHT22;51043;52.406;9.690;2024-03-06T01:30:05;4.20;99.90
64634;DHT22;51043;52.406;9.690;2024-03-06T01:32:35;4.20;99.90
64634;DHT22;51043;52.406;9.690;2024-03-06T01:35:05;4.20;99.90
64634;DHT22;51043;52.406;9.690;2024-03-06T01:37:33;4.20;99.90
64634;DHT22;51043;52.406;9.690;2024-03-06T01:40:01;4.20;99.90
64634;DHT22;51043;52.406;9.690;2024-03-06T01:42:34;4.20;99.90
64634;DHT22;51043;52.406;9.690;2024-03-06T01:45:02;4.20;99.90
64634;DHT22;51043;52.406;9.690;2024-03-06T01:47:31;4.20;99.90
64634;DHT22;51043;52.406;9.690;2024-03-06T01:50:01;4.20;99.90
64634;DHT22;51043;52.406;9.690;2024-03-06T01:52:30;4.20;99.90
64634;DHT22;51043;52.406;9.690;2024-03-06T01:55:00;4.10;99.90
64634;DHT22;51043;52.406;9.690;2024-03-06T01:57:28;4.00;99.90
64634;DHT22;51043;52.406;9.690;2024-03-06T01:59:57;4.00;99.90
64634;DHT22;51043;52.406;9.690;2024-03-06T02:02:25;4.00;99.90
64634;DHT22;51043;52.406;9.690;2024-03-06T02:04:55;4.10;99.90
64634;DHT22;51043;52.406;9.690;2024-03-06T02:07:29;4.00;99.90
64634;DHT22;51043;52.406;9.690;2024-03-06T02:10:01;4.00;99.90
64634;DHT22;51043;52.406;9.690;2024-03-06T02:12:31;4.00;99.90
64634;DHT22;51043;52.406;9.690;2024-03-06T02:15:00;4.00;99.90
64634;DHT22;51043;52.406;9.690;2024-03-06T02:17:29;4.00;99.90
64634;DHT22;51043;52.406;9.690;2024-03-06T02:19:58;4.10;99.90
64634;DHT22;51043;52.406;9.690;2024-03-06T02:22:27;4.10;99.90
64634;DHT22;51043;52.406;9.690;2024-03-06T02:24:56;4.00;99.90
64634;DHT22;51043;52.406;9.690;2024-03-06T02:27:24;4.10;99.90
64634;DHT22;51043;52.406;9.690;2024-03-06T02:29:52;4.10;99.90
64634;DHT22;51043;52.406;9.690;2024-03-06T02:32:20;4.10;99.90
64634;DHT22;51043;52.406;9.690;2024-03-06T02:34:48;4.10;99.90
64634;DHT22;51043;52.406;9.690;2024-03-06T02:37:16;4.10;99.90
64634;DHT22;51043;52.406;9.690;2024-03-06T02:39:45;4.10;99.90
64634;DHT22;51043;52.406;9.690;2024-03-06T02:42:14;4.10;99.90
64634;DHT22;51043;52.406;9.690;2024-03-06T02:44:43;4.20;99.90
64634;DHT22;51043;52.406;9.690;2024-03-06T02:47:11;4.00;99.90
64634;DHT22;51043;52.406;9.690;2024-03-06T02:49:39;4.00;99.90
64634;DHT22;51043;52.406;9.690;2024-03-06T02:52:08;4.00;99.90
64634;DHT22;51043;52.406;9.690;2024-03-06T02:54:36;4.20;99.90
64634;DHT22;51043;52.406;9.690;2024-03-06T02:57:06;4.00;99.90
64634;DHT22;51043;52.406;9.690;2024-03-06T02:59:35;4.00;99.90
64634;DHT22;51043;52.406;9.690;2024-03-06T03:02:03;4.00;99.90
64634;DHT22;51043;52.406;9.690;2024-03-06T03:04:31;4.00;99.90
64634;DHT22;51043;52.406;9.690;2024-03-06T03:07:01;4.00;99.90
64634;DHT22;51043;52.406;9.690;2024-03-06T03:09:29;4.10;99.90
64634;DHT22;51043;52.406;9.690;2024-03-06T03:11:57;4.10;99.90
64634;DHT22;51043;52.406;9.690;2024-03-06T03:14:27;4.10;99.90
64634;DHT22;51043;52.406;9.690;2024-03-06T03:16:55;4.10;99.90
64634;DHT22;51043;52.406;9.690;2024-03-06T03:19:25;4.10;99.90
64634;DHT22;51043;52.406;9.690;2024-03-06T03:21:59;4.10;99.90
64634;DHT22;51043;52.406;9.690;2024-03-06T03:24:31;4.10;99.90
64634;DHT22;51043;52.406;9.690;2024-03-06T03:27:00;4.10;99.90
64634;DHT22;51043;52.406;9.690;2024-03-06T03:29:30;4.10;99.90
64634;DHT22;51043;52.406;9.690;2024-03-06T03:32:01;4.10;99.90
64634;DHT22;51043;52.406;9.690;2024-03-06T03:34:30;4.10;99.90
64634;DHT22;51043;52.406;9.690;2024-03-06T03:36:58;4.00;99.90
64634;DHT22;51043;52.406;9.690;2024-03-06T03:39:26;4.00;99.90
64634;DHT22;51043;52.406;9.690;2024-03-06T03:41:54;4.10;99.90
64634;DHT22;51043;52.406;9.690;2024-03-06T03:44:22;4.10;99.90
64634;DHT22;51043;52.406;9.690;2024-03-06T03:46:51;4.10;99.90
64634;DHT22;51043;52.406;9.690;2024-03-06T03:49:19;4.00;99.90
64634;DHT22;51043;52.406;9.690;2024-03-06T03:51:47;4.00;99.90
64634;DHT22;51043;52.406;9.690;2024-03-06T03:54:16;4.00;99.90
64634;DHT22;51043;52.406;9.690;2024-03-06T03:56:44;4.30;99.90
64634;DHT22;51043;52.406;9.690;2024-03-06T03:59:12;4.00;99.90
64634;DHT22;51043;52.406;9.690;2024-03-06T04:01:40;4.00;99.90
64634;DHT22;51043;52.406;9.690;2024-03-06T04:04:10;4.00;99.90
64634;DHT22;51043;52.406;9.690;2024-03-06T04:06:39;4.00;99.90
64634;DHT22;51043;52.406;9.690;2024-03-06T04:09:09;3.90;99.90
64634;DHT22;51043;52.406;9.690;2024-03-06T04:11:38;3.90;99.90
64634;DHT22;51043;52.406;9.690;2024-03-06T04:14:06;4.00;99.90
64634;DHT22;51043;52.406;9.690;2024-03-06T04:16:34;4.00;99.90
64634;DHT22;51043;52.406;9.690;2024-03-06T04:19:05;4.00;99.90
64634;DHT22;51043;52.406;9.690;2024-03-06T04:21:40;3.90;99.90
64634;DHT22;51043;52.406;9.690;2024-03-06T04:24:09;4.00;99.90
64634;DHT22;51043;52.406;9.690;2024-03-06T04:26:38;4.10;99.90
64634;DHT22;51043;52.406;9.690;2024-03-06T04:29:10;4.00;99.90
64634;DHT22;51043;52.406;9.690;2024-03-06T04:31:40;4.10;99.90
64634;DHT22;51043;52.406;9.690;2024-03-06T04:34:08;4.00;99.90
64634;DHT22;51043;52.406;9.690;2024-03-06T04:36:40;4.00;99.90
64634;DHT22;51043;52.406;9.690;2024-03-06T04:39:08;4.00;99.90
64634;DHT22;51043;52.406;9.690;2024-03-06T04:41:37;4.00;99.90
64634;DHT22;51043;52.406;9.690;2024-03-06T04:44:05;4.00;99.90
64634;DHT22;51043;52.406;9.690;2024-03-06T04:46:33;3.90;99.90
64634;DHT22;51043;52.406;9.690;2024-03-06T04:49:03;4.00;99.90
64634;DHT22;51043;52.406;9.690;2024-03-06T04:51:31;4.00;99.90
64634;DHT22;51043;52.406;9.690;2024-03-06T04:54:01;4.00;99.90
64634;DHT22;51043;52.406;9.690;2024-03-06T04:56:30;4.00;99.90
64634;DHT22;51043;52.406;9.690;2024-03-06T04:58:59;4.10;99.90
64634;DHT22;51043;52.406;9.690;2024-03-06T05:01:30;4.10;99.90
64634;DHT22;51043;52.406;9.690;2024-03-06T05:03:59;4.00;99.90
64634;DHT22;51043;52.406;9.690;2024-03-06T05:06:45;4.00;99.90
64634;DHT22;51043;52.406;9.690;2024-03-06T05:09:32;4.00;99.90
64634;DHT22;51043;52.406;9.690;2024-03-06T05:12:20;3.90;99.90
64634;DHT22;51043;52.406;9.690;2024-03-06T05:15:06;4.00;99.90
64634;DHT22;51043;52.406;9.690;2024-03-06T05:17:52;3.90;99.90
64634;DHT22;51043;52.406;9.690;2024-03-06T05:20:39;3.90;99.90
64634;DHT22;51043;52.406;9.690;2024-03-06T05:23:25;4.00;99.90
64634;DHT22;51043;52.406;9.690;2024-03-06T05:26:13;3.90;99.90
64634;DHT22;51043;52.406;9.690;2024-03-06T05:29:03;3.90;99.90
64634;DHT22;51043;52.406;9.690;2024-03-06T05:31:50;3.90;99.90
64634;DHT22;51043;52.406;9.690;2024-03-06T05:34:39;3.90;99.90
64634;DHT22;51043;52.406;9.690;2024-03-06T05:37:24;3.90;99.90
64634;DHT22;51043;52.406;9.690;2024-03-06T05:40:11;4.00;99.90
64634;DHT22;51043;52.406;9.690;2024-03-06T05:42:58;4.00;99.90
64634;DHT22;51043;52.406;9.690;2024-03-06T05:45:44;4.00;99.90
64634;DHT22;51043;52.406;9.690;2024-03-06T05:48:29;4.00;99.90
64634;DHT22;51043;52.406;9.690;2024-03-06T05:51:18;4.00;99.90
64634;DHT22;51043;52.406;9.690;2024-03-06T05:54:05;4.00;99.90
64634;DHT22;51043;52.406;9.690;2024-03-06T05:56:53;4.10;99.90
64634;DHT22;51043;52.406;9.690;2024-03-06T05:59:40;4.00;99.90
64634;DHT22;51043;52.406;9.690;2024-03-06T06:02:09;4.00;99.90
64634;DHT22;51043;52.406;9.690;2024-03-06T06:04:37;4.00;99.90
64634;DHT22;51043;52.406;9.690;2024-03-06T06:07:07;4.00;99.90
64634;DHT22;51043;52.406;9.690;2024-03-06T06:09:38;4.00;99.90
64634;DHT22;51043;52.406;9.690;2024-03-06T06:12:07;4.00;99.90
64634;DHT22;51043;52.406;9.690;2024-03-06T06:14:36;4.00;99.90
64634;DHT22;51043;52.406;9.690;2024-03-06T06:17:06;4.00;99.90
64634;DHT22;51043;52.406;9.690;2024-03-06T06:19:34;4.00;99.90
64634;DHT22;51043;52.406;9.690;2024-03-06T06:22:02;4.00;99.90
64634;DHT22;51043;52.406;9.690;2024-03-06T06:24:32;4.00;99.90
64634;DHT22;51043;52.406;9.690;2024-03-06T06:27:00;4.10;99.90
64634;DHT22;51043;52.406;9.690;2024-03-06T06:29:29;4.10;99.90
64634;DHT22;51043;52.406;9.690;2024-03-06T06:31:57;4.10;99.90
64634;DHT22;51043;52.406;9.690;2024-03-06T06:34:27;4.10;99.90
64634;DHT22;51043;52.406;9.690;2024-03-06T06:36:55;4.00;99.90
64634;DHT22;51043;52.406;9.690;2024-03-06T06:39:25;4.10;99.90
64634;DHT22;51043;52.406;9.690;2024-03-06T06:41:55;4.10;99.90
64634;DHT22;51043;52.406;9.690;2024-03-06T06:44:28;4.00;99.90
64634;DHT22;51043;52.406;9.690;2024-03-06T06:46:57;4.10;99.90
64634;DHT22;51043;52.406;9.690;2024-03-06T06:49:29;4.10;99.90
64634;DHT22;51043;52.406;9.690;2024-03-06T06:51:57;4.10;99.90
64634;DHT22;51043;52.406;9.690;2024-03-06T06:54:26;4.20;99.90
64634;DHT22;51043;52.406;9.690;2024-03-06T06:56:55;4.20;99.90
64634;DHT22;51043;52.406;9.690;2024-03-06T06:59:24;4.20;99.90
64634;DHT22;51043;52.406;9.690;2024-03-06T07:01:52;4.30;99.90
64634;DHT22;51043;52.406;9.690;2024-03-06T07:04:21;4.30;99.90
64634;DHT22;51043;52.406;9.690;2024-03-06T07:06:52;4.30;99.90
64634;DHT22;51043;52.406;9.690;2024-03-06T07:09:21;4.40;99.90
64634;DHT22;51043;52.406;9.690;2024-03-06T07:11:50;4.40;99.90
64634;DHT22;51043;52.406;9.690;2024-03-06T07:14:19;4.50;99.90
64634;DHT22;51043;52.406;9.690;2024-03-06T07:16:47;4.60;99.90
64634;DHT22;51043;52.406;9.690;2024-03-06T07:19:15;4.50;99.90
64634;DHT22;51043;52.406;9.690;2024-03-06T07:21:44;4.60;99.90
64634;DHT22;51043;52.406;9.690;2024-03-06T07:24:14;4.60;99.90
64634;DHT22;51043;52.406;9.690;2024-03-06T07:26:43;4.60;99.90
64634;DHT22;51043;52.406;9.690;2024-03-06T07:29:12;4.70;99.90
64634;DHT22;51043;52.406;9.690;2024-03-06T07:31:42;4.80;99.90
64634;DHT22;51043;52.406;9.690;2024-03-06T07:34:14;4.70;99.90
64634;DHT22;51043;52.406;9.690;2024-03-06T07:36:44;4.70;99.90
64634;DHT22;51043;52.406;9.690;2024-03-06T07:39:19;4.80;99.90
64634;DHT22;51043;52.406;9.690;2024-03-06T07:41:47;4.80;99.90
64634;DHT22;51043;52.406;9.690;2024-03-06T07:44:19;4.80;99.90
64634;DHT22;51043;52.406;9.690;2024-03-06T07:46:47;4.90;99.90
64634;DHT22;51043;52.406;9.690;2024-03-06T07:49:17;4.90;99.90
64634;DHT22;51043;52.406;9.690;2024-03-06T07:51:50;5.00;99.90
64634;DHT22;51043;52.406;9.690;2024-03-06T07:54:20;5.00;99.90
64634;DHT22;51043;52.406;9.690;2024-03-06T07:56:49;5.00;99.90
64634;DHT22;51043;52.406;9.690;2024-03-06T07:59:18;5.10;99.90
64634;DHT22;51043;52.406;9.690;2024-03-06T08:01:47;5.10;99.90
64634;DHT22;51043;52.406;9.690;2024-03-06T08:04:19;5.10;99.90
64634;DHT22;51043;52.406;9.690;2024-03-06T08:06:52;5.20;99.90
64634;DHT22;51043;52.406;9.690;2024-03-06T08:09:22;5.30;99.90
64634;DHT22;51043;52.406;9.690;2024-03-06T08:11:52;5.30;99.90
64634;DHT22;51043;52.406;9.690;2024-03-06T08:14:22;5.40;99.90
64634;DHT22;51043;52.406;9.690;2024-03-06T08:16:50;5.40;99.90
64634;DHT22;51043;52.406;9.690;2024-03-06T08:19:21;5.30;99.90
64634;DHT22;51043;52.406;9.690;2024-03-06T08:21:55;5.40;99.90
64634;DHT22;51043;52.406;9.690;2024-03-06T08:24:28;5.50;99.90
64634;DHT22;51043;52.406;9.690;2024-03-06T08:27:00;5.50;99.90
64634;DHT22;51043;52.406;9.690;2024-03-06T08:29:29;5.60;99.90
64634;DHT22;51043;52.406;9.690;2024-03-06T08:31:57;5.60;99.90
64634;DHT22;51043;52.406;9.690;2024-03-06T08:34:27;5.70;99.90
64634;DHT22;51043;52.406;9.690;2024-03-06T08:36:55;5.60;99.90
64634;DHT22;51043;52.406;9.690;2024-03-06T08:39:25;5.60;99.90
64634;DHT22;51043;52.406;9.690;2024-03-06T08:41:55;5.70;99.90
64634;DHT22;51043;52.406;9.690;2024-03-06T08:44:26;5.70;99.90
64634;DHT22;51043;52.406;9.690;2024-03-06T08:47:02;5.70;99.90
64634;DHT22;51043;52.406;9.690;2024-03-06T08:49:30;5.80;99.90
64634;DHT22;51043;52.406;9.690;2024-03-06T08:51:59;5.90;99.90
64634;DHT22;51043;52.406;9.690;2024-03-06T08:54:27;6.00;99.90
64634;DHT22;51043;52.406;9.690;2024-03-06T08:56:59;6.00;99.90
64634;DHT22;51043;52.406;9.690;2024-03-06T08:59:27;6.00;99.90
64634;DHT22;51043;52.406;9.690;2024-03-06T09:01:55;6.10;99.90
64634;DHT22;51043;52.406;9.690;2024-03-06T09:04:24;6.20;99.90
64634;DHT22;51043;52.406;9.690;2024-03-06T09:06:52;6.20;99.90
64634;DHT22;51043;52.406;9.690;2024-03-06T09:09:20;6.20;99.90
64634;DHT22;51043;52.406;9.690;2024-03-06T09:11:48;6.30;99.90
64634;DHT22;51043;52.406;9.690;2024-03-06T09:14:18;6.40;99.90
64634;DHT22;51043;52.406;9.690;2024-03-06T09:16:46;6.50;99.90
64634;DHT22;51043;52.406;9.690;2024-03-06T09:19:19;6.60;99.90
64634;DHT22;51043;52.406;9.690;2024-03-06T09:21:47;6.70;99.90
64634;DHT22;51043;52.406;9.690;2024-03-06T09:24:15;6.80;99.90
64634;DHT22;51043;52.406;9.690;2024-03-06T09:26:43;6.80;99.90
64634;DHT22;51043;52.406;9.690;2024-03-06T09:29:12;6.90;99.90
64634;DHT22;51043;52.406;9.690;2024-03-06T09:31:42;6.90;99.90
64634;DHT22;51043;52.406;9.690;2024-03-06T09:34:12;6.90;99.90
64634;DHT22;51043;52.406;9.690;2024-03-06T09:36:41;6.90;99.90
64634;DHT22;51043;52.406;9.690;2024-03-06T09:39:12;7.00;99.90
64634;DHT22;51043;52.406;9.690;2024-03-06T09:41:43;7.00;99.90
64634;DHT22;51043;52.406;9.690;2024-03-06T09:44:14;7.10;99.90
64634;DHT22;51043;52.406;9.690;2024-03-06T09:46:50;7.30;99.90
64634;DHT22;51043;52.406;9.690;2024-03-06T09:49:19;7.40;99.90
64634;DHT22;51043;52.406;9.690;2024-03-06T09:51:48;7.60;99.90
64634;DHT22;51043;52.406;9.690;2024-03-06T09:54:17;7.60;99.90
64634;DHT22;51043;52.406;9.690;2024-03-06T09:56:47;7.60;99.90
64634;DHT22;51043;52.406;9.690;2024-03-06T09:59:15;7.70;99.90
64634;DHT22;51043;52.406;9.690;2024-03-06T10:01:53;7.70;99.90
64634;DHT22;51043;52.406;9.690;2024-03-06T10:04:24;7.80;99.90
64634;DHT22;51043;52.406;9.690;2024-03-06T10:06:54;8.00;99.90
64634;DHT22;51043;52.406;9.690;2024-03-06T10:09:23;8.10;99.90
64634;DHT22;51043;52.406;9.690;2024-03-06T10:11:52;8.30;99.90
64634;DHT22;51043;52.406;9.690;2024-03-06T10:14:29;8.40;99.90
64634;DHT22;51043;52.406;9.690;2024-03-06T10:17:00;8.50;99.90
64634;DHT22;51043;52.406;9.690;2024-03-06T10:19:29;8.60;99.90
64634;DHT22;51043;52.406;9.690;2024-03-06T10:22:00;8.70;99.90
64634;DHT22;51043;52.406;9.690;2024-03-06T10:24:29;8.80;99.90
64634;DHT22;51043;52.406;9.690;2024-03-06T10:26:59;9.10;99.90
64634;DHT22;51043;52.406;9.690;2024-03-06T10:29:29;9.20;99.90
64634;DHT22;51043;52.406;9.690;2024-03-06T10:31:59;9.40;99.90
64634;DHT22;51043;52.406;9.690;2024-03-06T10:34:28;9.50;99.90
64634;DHT22;51043;52.406;9.690;2024-03-06T10:36:59;9.70;99.90
64634;DHT22;51043;52.406;9.690;2024-03-06T10:39:30;9.90;99.90
64634;DHT22;51043;52.406;9.690;2024-03-06T10:42:03;9.90;99.90
64634;DHT22;51043;52.406;9.690;2024-03-06T10:44:38;9.80;99.90
64634;DHT22;51043;52.406;9.690;2024-03-06T10:47:12;9.70;99.90
64634;DHT22;51043;52.406;9.690;2024-03-06T10:49:41;9.60;99.90
64634;DHT22;51043;52.406;9.690;2024-03-06T10:52:10;9.60;99.90
64634;DHT22;51043;52.406;9.690;2024-03-06T10:54:42;9.50;99.90
64634;DHT22;51043;52.406;9.690;2024-03-06T10:57:14;9.70;99.90
64634;DHT22;51043;52.406;9.690;2024-03-06T10:59:42;9.80;99.90
64634;DHT22;51043;52.406;9.690;2024-03-06T11:02:15;10.00;99.90
64634;DHT22;51043;52.406;9.690;2024-03-06T11:04:45;10.30;99.90
64634;DHT22;51043;52.406;9.690;2024-03-06T11:07:14;10.70;99.90
64634;DHT22;51043;52.406;9.690;2024-03-06T11:09:47;11.10;99.90
64634;DHT22;51043;52.406;9.690;2024-03-06T11:12:34;11.30;99.90
64634;DHT22;51043;52.406;9.690;2024-03-06T11:15:09;11.40;99.90
64634;DHT22;51043;52.406;9.690;2024-03-06T11:17:46;11.40;99.90
64634;DHT22;51043;52.406;9.690;2024-03-06T11:20:17;11.50;99.90
64634;DHT22;51043;52.406;9.690;2024-03-06T11:23:05;11.20;99.90
64634;DHT22;51043;52.406;9.690;2024-03-06T11:26:00;11.50;99.90
64634;DHT22;51043;52.406;9.690;2024-03-06T11:28:32;11.30;99.90
64634;DHT22;51043;52.406;9.690;2024-03-06T11:31:02;11.30;99.90
64634;DHT22;51043;52.406;9.690;2024-03-06T11:33:40;11.40;99.90
64634;DHT22;51043;52.406;9.690;2024-03-06T11:36:17;11.50;99.90
64634;DHT22;51043;52.406;9.690;2024-03-06T11:38:48;11.50;99.90
64634;DHT22;51043;52.406;9.690;2024-03-06T11:41:20;11.30;99.90
64634;DHT22;51043;52.406;9.690;2024-03-06T11:43:51;11.50;99.90
64634;DHT22;51043;52.406;9.690;2024-03-06T11:46:22;11.50;99.90
64634;DHT22;51043;52.406;9.690;2024-03-06T11:48:55;11.40;99.90
64634;DHT22;51043;52.406;9.690;2024-03-06T11:51:25;11.40;99.90
64634;DHT22;51043;52.406;9.690;2024-03-06T11:53:54;11.30;99.90
64634;DHT22;51043;52.406;9.690;2024-03-06T11:56:23;11.10;99.90
64634;DHT22;51043;52.406;9.690;2024-03-06T11:58:56;10.90;99.90
64634;DHT22;51043;52.406;9.690;2024-03-06T12:01:25;10.60;99.90
64634;DHT22;51043;52.406;9.690;2024-03-06T12:03:54;10.30;99.90
64634;DHT22;51043;52.406;9.690;2024-03-06T12:06:22;10.20;99.90
64634;DHT22;51043;52.406;9.690;2024-03-06T12:08:51;10.40;99.90
64634;DHT22;51043;52.406;9.690;2024-03-06T12:11:19;10.50;99.90
64634;DHT22;51043;52.406;9.690;2024-03-06T12:13:48;10.40;99.90
64634;DHT22;51043;52.406;9.690;2024-03-06T12:16:17;10.40;99.90
64634;DHT22;51043;52.406;9.690;2024-03-06T12:18:45;10.30;99.90
64634;DHT22;51043;52.406;9.690;2024-03-06T12:21:17;10.30;99.90
64634;DHT22;51043;52.406;9.690;2024-03-06T12:23:45;10.20;99.90
64634;DHT22;51043;52.406;9.690;2024-03-06T12:26:13;10.20;99.90
64634;DHT22;51043;52.406;9.690;2024-03-06T12:28:41;10.30;99.90
64634;DHT22;51043;52.406;9.690;2024-03-06T12:31:12;10.40;99.90
64634;DHT22;51043;52.406;9.690;2024-03-06T12:33:40;10.50;99.90
64634;DHT22;51043;52.406;9.690;2024-03-06T12:36:09;10.60;99.90
64634;DHT22;51043;52.406;9.690;2024-03-06T12:38:40;10.50;99.90
64634;DHT22;51043;52.406;9.690;2024-03-06T12:41:10;10.40;99.90
64634;DHT22;51043;52.406;9.690;2024-03-06T12:43:39;10.60;99.90
64634;DHT22;51043;52.406;9.690;2024-03-06T12:46:10;10.80;99.90
64634;DHT22;51043;52.406;9.690;2024-03-06T12:48:41;10.70;99.90
64634;DHT22;51043;52.406;9.690;2024-03-06T12:51:12;10.70;99.90
64634;DHT22;51043;52.406;9.690;2024-03-06T12:53:41;10.70;99.90
64634;DHT22;51043;52.406;9.690;2024-03-06T12:56:11;10.80;99.90
64634;DHT22;51043;52.406;9.690;2024-03-06T12:58:39;10.80;99.90
64634;DHT22;51043;52.406;9.690;2024-03-06T13:01:08;10.90;99.90
64634;DHT22;51043;52.406;9.690;2024-03-06T13:03:40;11.00;99.90
64634;DHT22;51043;52.406;9.690;2024-03-06T13:06:09;11.20;99.90
64634;DHT22;51043;52.406;9.690;2024-03-06T13:08:37;11.00;99.90
64634;DHT22;51043;52.406;9.690;2024-03-06T13:11:07;11.10;99.90
64634;DHT22;51043;52.406;9.690;2024-03-06T13:13:36;11.00;99.90
64634;DHT22;51043;52.406;9.690;2024-03-06T13:16:05;10.90;99.90
64634;DHT22;51043;52.406;9.690;2024-03-06T13:18:33;10.90;99.90
64634;DHT22;51043;52.406;9.690;2024-03-06T13:21:01;10.60;99.90
64634;DHT22;51043;52.406;9.690;2024-03-06T13:23:29;10.60;99.90
64634;DHT22;51043;52.406;9.690;2024-03-06T13:25:58;10.50;99.90
64634;DHT22;51043;52.406;9.690;2024-03-06T13:28:27;10.50;99.90
64634;DHT22;51043;52.406;9.690;2024-03-06T13:30:57;10.40;99.90
64634;DHT22;51043;52.406;9.690;2024-03-06T13:33:25;10.40;99.90
64634;DHT22;51043;52.406;9.690;2024-03-06T13:35:56;10.30;99.90
64634;DHT22;51043;52.406;9.690;2024-03-06T13:38:25;10.40;99.90
64634;DHT22;51043;52.406;9.690;2024-03-06T13:40:56;10.40;99.90
64634;DHT22;51043;52.406;9.690;2024-03-06T13:43:27;10.60;99.90
64634;DHT22;51043;52.406;9.690;2024-03-06T13:45:55;10.70;99.90
64634;DHT22;51043;52.406;9.690;2024-03-06T13:48:25;10.70;99.90
64634;DHT22;51043;52.406;9.690;2024-03-06T13:50:54;10.70;99.90
64634;DHT22;51043;52.406;9.690;2024-03-06T13:53:22;10.60;99.90
64634;DHT22;51043;52.406;9.690;2024-03-06T13:55:52;10.60;99.90
64634;DHT22;51043;52.406;9.690;2024-03-06T13:58:20;10.60;99.90
64634;DHT22;51043;52.406;9.690;2024-03-06T14:00:50;10.70;99.90
64634;DHT22;51043;52.406;9.690;2024-03-06T14:03:19;10.70;99.90
64634;DHT22;51043;52.406;9.690;2024-03-06T14:05:49;10.40;99.90
64634;DHT22;51043;52.406;9.690;2024-03-06T14:08:17;10.30;99.90
64634;DHT22;51043;52.406;9.690;2024-03-06T14:10:49;10.20;99.90
64634;DHT22;51043;52.406;9.690;2024-03-06T14:13:17;10.20;99.90
64634;DHT22;51043;52.406;9.690;2024-03-06T14:15:45;10.00;99.90
64634;DHT22;51043;52.406;9.690;2024-03-06T14:18:17;9.90;99.90
64634;DHT22;51043;52.406;9.690;2024-03-06T14:20:47;9.90;99.90
64634;DHT22;51043;52.406;9.690;2024-03-06T14:23:15;9.80;99.90
64634;DHT22;51043;52.406;9.690;2024-03-06T14:25:43;9.70;99.90
64634;DHT22;51043;52.406;9.690;2024-03-06T14:28:12;9.60;99.90
64634;DHT22;51043;52.406;9.690;2024-03-06T14:30:40;9.60;99.90
64634;DHT22;51043;52.406;9.690;2024-03-06T14:33:09;9.60;99.90
64634;DHT22;51043;52.406;9.690;2024-03-06T14:35:42;9.60;99.90
64634;DHT22;51043;52.406;9.690;2024-03-06T14:38:12;9.60;99.90
64634;DHT22;51043;52.406;9.690;2024-03-06T14:40:40;9.60;99.90
64634;DHT22;51043;52.406;9.690;2024-03-06T14:43:09;9.60;99.90
64634;DHT22;51043;52.406;9.690;2024-03-06T14:45:38;9.50;99.90
64634;DHT22;51043;52.406;9.690;2024-03-06T14:48:11;9.60;99.90
64634;DHT22;51043;52.406;9.690;2024-03-06T14:50:45;9.60;99.90
64634;DHT22;51043;52.406;9.690;2024-03-06T14:53:14;9.70;99.90
64634;DHT22;51043;52.406;9.690;2024-03-06T14:55:43;9.70;99.90
64634;DHT22;51043;52.406;9.690;2024-03-06T14:58:11;9.70;99.90
64634;DHT22;51043;52.406;9.690;2024-03-06T15:00:40;9.70;99.90
64634;DHT22;51043;52.406;9.690;2024-03-06T15:03:09;9.60;99.90
64634;DHT22;51043;52.406;9.690;2024-03-06T15:05:37;9.60;99.90
64634;DHT22;51043;52.406;9.690;2024-03-06T15:08:07;9.50;99.90
64634;DHT22;51043;52.406;9.690;2024-03-06T15:10:37;9.50;99.90
64634;DHT22;51043;52.406;9.690;2024-03-06T15:13:05;9.50;99.90
64634;DHT22;51043;52.406;9.690;2024-03-06T15:15:37;9.50;99.90
64634;DHT22;51043;52.406;9.690;2024-03-06T15:18:06;9.50;99.90
64634;DHT22;51043;52.406;9.690;2024-03-06T15:20:36;9.40;99.90
64634;DHT22;51043;52.406;9.690;2024-03-06T15:23:07;9.40;99.90
64634;DHT22;51043;52.406;9.690;2024-03-06T15:25:35;9.40;99.90
64634;DHT22;51043;52.406;9.690;2024-03-06T15:28:05;9.40;99.90
64634;DHT22;51043;52.406;9.690;2024-03-06T15:30:35;9.40;99.90
64634;DHT22;51043;52.406;9.690;2024-03-06T15:33:04;9.40;99.90
64634;DHT22;51043;52.406;9.690;2024-03-06T15:35:33;9.30;99.90
64634;DHT22;51043;52.406;9.690;2024-03-06T15:38:03;9.20;99.90
64634;DHT22;51043;52.406;9.690;2024-03-06T15:40:34;9.10;99.90
64634;DHT22;51043;52.406;9.690;2024-03-06T15:43:04;9.00;99.90
64634;DHT22;51043;52.406;9.690;2024-03-06T15:45:32;9.00;99.90
64634;DHT22;51043;52.406;9.690;2024-03-06T15:48:02;8.90;99.90
64634;DHT22;51043;52.406;9.690;2024-03-06T15:50:31;8.90;99.90
64634;DHT22;51043;52.406;9.690;2024-03-06T15:53:00;8.80;99.90
64634;DHT22;51043;52.406;9.690;2024-03-06T15:55:30;8.70;99.90
64634;DHT22;51043;52.406;9.690;2024-03-06T15:58:00;8.70;99.90
64634;DHT22;51043;52.406;9.690;2024-03-06T16:00:29;8.70;99.90
64634;DHT22;51043;52.406;9.690;2024-03-06T16:02:57;8.60;99.90